Flight Track Log - Related Links

Times and Time Zones

All times are in EDT time to prevent confusion due to time zone crossing. See the DAL268 flight status page for this flight to view local times or setup timezone preferences in your user account.

Time Position Orientation Groundspeed Altitude Reporting Facility
EDT Latitude Longitude Course Direction KTS MPH feet Rate Location/Type
Mon 12:11:28 AM 40.6310 -73.7780 120° Southeast  Level FlightAware ADS-B
Mon 12:12:37 AM 40.6310 -73.7770 90° East 2 2 33 Level FlightAware ADS-B
Mon 12:14:26 AM 40.6310 -73.7760 90° East 2 2 35 Level FlightAware ADS-B
Mon 12:17:00 AM 40.5833 -73.3123 90° East  Level FlightAware Approximate
Mon 12:17:33 AM 40.6300 -73.7760 90° East 2 2  Level FlightAware ADS-B
Mon 12:20:00 AM 40.5833 -73.3343 90° East  Level FlightAware Approximate
Mon 12:20:36 AM 40.6290 -73.7760 90° East 2 2  Level FlightAware ADS-B
Mon 12:23:00 AM 40.5833 -73.3437 90° East  Level FlightAware Approximate
Mon 12:24:00 AM 40.5603 -73.1629 97° East  Level FlightAware Approximate
Mon 12:25:00 AM 40.5600 -72.9800 57° Northeast  Level FlightAware Approximate
Mon 12:26:00 AM 40.5991 -72.8027 66° East  Level FlightAware Approximate
Mon 12:26:09 AM 40.6280 -73.7760 66° East 2 2  Level FlightAware ADS-B
Mon 12:27:04 AM 40.6280 -73.7770 270° West 2 2 72 Level FlightAware ADS-B
Mon 12:28:17 AM 40.6270 -73.7760 143° Southeast 18 21 78 Level FlightAware ADS-B
Mon 12:29:13 AM 40.6260 -73.7770 217° Southwest 28 32 87 Level FlightAware ADS-B
Mon 12:29:51 AM 40.6250 -73.7760 143° Southeast 21 24 96 Level FlightAware ADS-B
Mon 12:30:40 AM 40.6230 -73.7740 143° Southeast 21 24 103 Level FlightAware ADS-B
Mon 12:31:07 AM 40.6230 -73.7730 90° East 23 26 114 Level FlightAware ADS-B
Mon 12:31:45 AM 40.6220 -73.7710 123° Southeast 16 18 121 Level FlightAware ADS-B
Mon 12:32:09 AM 40.6210 -73.7710 180° South 2 2 132 Level FlightAware ADS-B
Mon 12:34:00 AM 40.5932 -73.4229 108° East  Level FlightAware Approximate
Mon 12:34:37 AM 40.6200 -73.7700 108° East 15 17  Level FlightAware ADS-B
Mon 12:35:34 AM 40.6190 -73.7700 180° South 24 28 227 Level FlightAware ADS-B
Mon 12:35:48 AM 40.6180 -73.7710 217° Southwest 22 25 298 Level FlightAware ADS-B
Mon 12:36:41 AM 40.6180 -73.7720 270° West 2 2 323 Level FlightAware ADS-B
Mon 12:37:27 AM 40.6190 -73.7730 323° Northwest 43 49 474 Level FlightAware ADS-B
Mon 12:37:51 AM 40.6240 -73.7850 299° West 140 161 794 Level FlightAware ADS-B
Mon 12:38:05 AM 40.6300 -73.7980 301° West 175 201 1,227 Level FlightAware ADS-B
Mon 12:38:35 AM 40.6410 -73.8290 295° West 197 227 900 2,036 Climbing FlightAware ADS-B
Mon 12:39:01 AM 40.6320 -73.8570 247° West 204 235 1,900 2,053 Climbing FlightAware ADS-B
Mon 12:39:13 AM 40.6220 -73.8650 211° Southwest 213 245 2,200 1,742 Climbing FlightAware ADS-B
Mon 12:39:32 AM 40.6040 -73.8710 194° South 221 254 2,800 1,742 Climbing FlightAware ADS-B
Mon 12:39:44 AM 40.5910 -73.8660 164° South 227 261 3,100 1,556 Climbing FlightAware ADS-B
Mon 12:39:59 AM 40.5800 -73.8530 138° Southeast 237 273 3,500 1,333 Climbing FlightAware ADS-B
Mon 12:40:11 AM 40.5730 -73.8370 120° Southeast 250 288 3,700 1,071 Climbing FlightAware ADS-B
Mon 12:40:27 AM 40.5690 -73.8130 102° East 261 300 4,000 1,364 Climbing FlightAware ADS-B
Mon 12:40:55 AM 40.5700 -73.7660 88° East 280 322 4,700 1,607 Climbing FlightAware ADS-B
Mon 12:41:23 AM 40.5690 -73.7170 92° East 297 342 5,500 1,895 Climbing FlightAware ADS-B
Mon 12:41:33 AM 40.5693 -73.6981 89° East 300 345 5,900 2,640 Climbing FlightAware ADS-B
Mon 12:41:48 AM 40.5691 -73.6703 91° East 303 349 6,600 2,625 Climbing FlightAware ADS-B
Mon 12:42:05 AM 40.5686 -73.6398 91° East 305 351 7,300 2,438 Climbing FlightAware ADS-B
Mon 12:42:20 AM 40.5677 -73.6117 92° East 307 353 7,900 2,516 Climbing FlightAware ADS-B
Mon 12:42:36 AM 40.5666 -73.5814 93° East 311 358 8,600 2,516 Climbing FlightAware ADS-B
Mon 12:42:51 AM 40.5653 -73.5523 93° East 314 361 9,200 2,323 Climbing FlightAware ADS-B
Mon 12:43:07 AM 40.5639 -73.5225 94° East 317 365 9,800 1,696 Climbing FlightAware ADS-B
Mon 12:43:37 AM 40.5613 -73.4625 93° East 342 394 10,500 1,200 Climbing FlightAware ADS-B
Mon 12:44:07 AM 40.5589 -73.3967 93° East 373 429 11,000 900 Climbing FlightAware ADS-B
Mon 12:44:37 AM 40.5567 -73.3254 92° East 403 464 11,400 1,038 Climbing FlightAware ADS-B
Mon 12:44:59 AM 40.5553 -73.2721 92° East 418 481 11,900 1,692 Climbing FlightAware ADS-B
Mon 12:45:16 AM 40.5582 -73.2272 85° East 426 490 12,500 2,200 Climbing FlightAware ADS-B
Mon 12:45:29 AM 40.5658 -73.1954 73° East 428 493 13,000 2,182 Climbing FlightAware ADS-B
Mon 12:46:00 AM 40.5968 -73.1250 60° Northeast 435 501 14,100 2,031 Climbing FlightAware ADS-B
Mon 12:46:34 AM 40.6301 -73.0463 61° Northeast 443 510 15,200 1,969 Climbing FlightAware ADS-B
Mon 12:47:04 AM 40.6612 -72.9755 60° Northeast 451 519 16,200 1,900 Climbing FlightAware ADS-B
Mon 12:47:34 AM 40.6929 -72.9018 60° Northeast 459 528 17,100 1,869 Climbing FlightAware ADS-B
Mon 12:48:05 AM 40.7253 -72.8251 61° Northeast 464 534 18,100 1,839 Climbing FlightAware ADS-B
Mon 12:48:36 AM 40.7570 -72.7480 61° Northeast 470 541 19,000 1,714 Climbing FlightAware ADS-B
Mon 12:49:08 AM 40.7900 -72.6672 62° Northeast 476 548 19,900 1,662 Climbing FlightAware ADS-B
Mon 12:49:41 AM 40.8245 -72.5829 62° Northeast 483 556 20,800 1,569 Climbing FlightAware ADS-B
Mon 12:50:13 AM 40.8588 -72.4988 62° Northeast 488 562 21,600 1,524 Climbing FlightAware ADS-B
Mon 12:50:44 AM 40.8919 -72.4176 62° Northeast 495 570 22,400 1,548 Climbing FlightAware ADS-B
Mon 12:51:15 AM 40.9257 -72.3348 62° Northeast 500 575 23,200 1,452 Climbing FlightAware ADS-B
Mon 12:51:46 AM 40.9609 -72.2490 61° Northeast 504 580 23,900 1,292 Climbing FlightAware ADS-B
Mon 12:52:20 AM 40.9970 -72.1590 62° Northeast 509 586 24,600 783 Climbing FlightAware ADS-B
Mon 12:52:55 AM 41.0330 -72.0730 61° Northeast 509 586 24,800 1,292 Climbing FlightAware ADS-B
Mon 12:53:25 AM 41.0717 -71.9763 62° Northeast 515 593 26,000 1,353 Climbing FlightAware ADS-B
Mon 12:55:07 AM 41.1230 -71.8520 61° Northeast 27,900 1,133 Climbing FlightAware ADS-B
Mon 12:55:48 AM 41.2300 -71.5860 62° Northeast 526 605 28,700 1,326 Climbing FlightAware ADS-B
Mon 12:56:33 AM 41.2830 -71.4530 62° Northeast 526 605 29,800 1,395 Climbing FlightAware ADS-B
Mon 12:57:14 AM 41.3320 -71.3300 62° Northeast 524 603 30,700 1,271 Climbing FlightAware ADS-B
Mon 12:57:58 AM 41.3820 -71.2030 62° Northeast 523 602 31,600 1,143 Climbing FlightAware ADS-B
Mon 12:58:38 AM 41.4270 -71.0900 62° Northeast 522 601 32,300 975 Climbing FlightAware ADS-B
Mon 12:59:18 AM 41.4710 -70.9760 63° Northeast 522 601 32,900 525 Climbing FlightAware ADS-B
Mon 12:59:58 AM 41.5170 -70.8580 62° Northeast 522 601 33,000 71 Climbing FlightAware ADS-B
Mon 01:00:43 AM 41.5640 -70.7390 62° Northeast 522 601 33,000  Level FlightAware ADS-B
Mon 01:01:23 AM 41.6100 -70.6210 62° Northeast 522 601 33,000  Level FlightAware ADS-B
Mon 01:02:03 AM 41.6530 -70.5120 62° Northeast 523 602 33,000  Level FlightAware ADS-B
Mon 01:02:45 AM 41.6930 -70.4100 62° Northeast 523 602 33,000  Level FlightAware ADS-B
Mon 01:03:43 AM 41.7640 -70.2200 63° Northeast 520 598 33,000  Level FlightAware ADS-B
Mon 01:04:28 AM 41.8150 -70.0870 63° Northeast 520 598 33,000  Level FlightAware ADS-B
Mon 01:05:23 AM 41.8740 -69.9310 63° Northeast 519 597 33,000  Level FlightAware ADS-B
Mon 01:06:00 AM 41.9150 -69.8220 63° Northeast 517 595 33,000  Level FlightAware ADS-B
Mon 01:06:48 AM 41.9690 -69.6790 63° Northeast 515 593 33,000  Level FlightAware ADS-B
Mon 01:07:31 AM 42.0110 -69.5650 64° Northeast 514 592 33,000  Level FlightAware ADS-B
Mon 01:08:09 AM 42.0560 -69.4460 63° Northeast 517 595 33,000  Level FlightAware ADS-B
Mon 01:08:53 AM 42.1020 -69.3210 64° Northeast 517 595 33,000  Level FlightAware ADS-B
Mon 01:09:38 AM 42.1500 -69.1910 63° Northeast 514 592 33,000  Level FlightAware ADS-B
Mon 01:10:18 AM 42.1930 -69.0750 63° Northeast 517 595 33,000  Level FlightAware ADS-B
Mon 01:10:58 AM 42.2350 -68.9600 64° Northeast 517 595 33,000  Level FlightAware ADS-B
Mon 01:11:53 AM 42.2930 -68.8010 64° Northeast 518 596 33,000  Level FlightAware ADS-B
Mon 01:12:33 AM 42.3360 -68.6830 64° Northeast 520 598 33,000  Level FlightAware ADS-B
Mon 01:13:14 AM 42.3790 -68.5650 64° Northeast 521 600 33,000  Level FlightAware ADS-B
Mon 01:13:59 AM 42.4260 -68.4340 64° Northeast 521 600 33,000  Level FlightAware ADS-B
Mon 01:14:39 AM 42.4680 -68.3170 64° Northeast 521 600 33,000  Level FlightAware ADS-B
Mon 01:15:24 AM 42.5130 -68.1900 64° Northeast 519 597 33,000  Level FlightAware ADS-B
Mon 01:16:05 AM 42.5530 -68.0790 64° Northeast 518 596 33,000  Level FlightAware ADS-B
Mon 01:17:18 AM 42.6458 -67.8636 64° Northeast 511 588 33,000  Level Boston Center
Mon 01:22:49 AM 42.9780 -66.8540 64° Northeast 533 613 33,000  Level FlightAware ADS-B
Mon 01:23:29 AM 43.0170 -66.7380 65° Northeast 534 615 33,000  Level FlightAware ADS-B
Mon 01:24:15 AM 43.0660 -66.5950 65° Northeast 537 618 33,000  Level FlightAware ADS-B
Mon 01:24:55 AM 43.1080 -66.4690 65° Northeast 537 618 33,000  Level FlightAware ADS-B
Mon 01:25:36 AM 43.1490 -66.3450 66° East 536 617 33,000  Level FlightAware ADS-B
Mon 01:26:20 AM 43.1950 -66.2090 65° Northeast 533 613 33,000  Level FlightAware ADS-B
Mon 01:27:00 AM 43.2360 -66.0850 66° East 534 615 33,000  Level FlightAware ADS-B
Mon 01:27:45 AM 43.2910 -65.9510 61° Northeast 524 603 33,000  Level FlightAware ADS-B
Mon 01:28:25 AM 43.3430 -65.8380 58° Northeast 525 604 33,000  Level FlightAware ADS-B
Mon 01:29:06 AM 43.3960 -65.7240 57° Northeast 526 605 33,000  Level FlightAware ADS-B
Mon 01:29:50 AM 43.4540 -65.5970 58° Northeast 523 602 33,000  Level FlightAware ADS-B
Mon 01:30:31 AM 43.5060 -65.4820 58° Northeast 521 600 33,000  Level FlightAware ADS-B
Mon 01:31:16 AM 43.5660 -65.3510 58° Northeast 521 600 33,000  Level FlightAware ADS-B
Mon 01:31:56 AM 43.6170 -65.2380 58° Northeast 522 601 33,000  Level FlightAware ADS-B
Mon 01:32:37 AM 43.6690 -65.1230 58° Northeast 523 602 33,000  Level FlightAware ADS-B
Mon 01:33:21 AM 43.7280 -64.9950 57° Northeast 526 605 33,000  Level FlightAware ADS-B
Mon 01:34:02 AM 43.7820 -64.8780 57° Northeast 529 609 33,000  Level FlightAware ADS-B
Mon 01:34:44 AM 43.8360 -64.7600 58° Northeast 529 609 33,000  Level FlightAware ADS-B
Mon 01:35:28 AM 43.8880 -64.6270 61° Northeast 534 615 33,000  Level FlightAware ADS-B
Mon 01:36:09 AM 43.9300 -64.5160 62° Northeast 534 615 33,000  Level FlightAware ADS-B
Mon 01:37:02 AM 43.9960 -64.3440 62° Northeast 533 613 33,000  Level FlightAware ADS-B
Mon 01:37:45 AM 44.0460 -64.2190 61° Northeast 530 610 33,000  Level FlightAware ADS-B
Mon 01:38:27 AM 44.0960 -64.0910 61° Northeast 530 610 33,000 231 Level FlightAware ADS-B
Mon 01:39:03 AM 44.1350 -63.9790 64° Northeast 536 617 33,300 714 Climbing FlightAware ADS-B
Mon 01:39:51 AM 44.1710 -63.8180 73° East 544 626 34,000 472 Climbing FlightAware ADS-B
Mon 01:40:32 AM 44.2040 -63.6830 71° East 542 624 34,000  Level FlightAware ADS-B
Mon 01:41:14 AM 44.2420 -63.5470 69° East 543 625 34,000  Level FlightAware ADS-B
Mon 01:42:14 AM 44.2970 -63.3490 69° East 542 624 34,000  Level FlightAware ADS-B
Mon 01:42:55 AM 44.3330 -63.2170 69° East 541 623 34,000  Level FlightAware ADS-B
Mon 01:43:31 AM 44.3650 -63.1010 69° East 540 621 34,000  Level FlightAware ADS-B
Mon 01:44:20 AM 44.4080 -62.9440 69° East 537 618 34,000  Level FlightAware ADS-B
Mon 01:45:01 AM 44.4440 -62.8110 69° East 535 616 34,000  Level FlightAware ADS-B
Mon 01:45:36 AM 44.4730 -62.7040 69° East 532 612 34,000  Level FlightAware ADS-B
Mon 01:46:18 AM 44.5050 -62.5890 69° East 532 612 34,000  Level FlightAware ADS-B
Mon 01:47:05 AM 44.5400 -62.4610 69° East 532 612 34,000  Level FlightAware ADS-B
Mon 01:47:41 AM 44.5670 -62.3620 69° East 532 612 34,000  Level FlightAware ADS-B
Mon 01:48:29 AM 44.6030 -62.2300 69° East 532 612 34,000  Level FlightAware ADS-B
Mon 01:49:05 AM 44.6300 -62.1310 69° East 532 612 34,000  Level FlightAware ADS-B
Mon 01:49:51 AM 44.6650 -62.0050 69° East 532 612 34,000  Level FlightAware ADS-B
Mon 01:50:54 AM 44.7120 -61.8320 69° East 532 612 34,000  Level FlightAware ADS-B
Mon 01:51:31 AM 44.7400 -61.7300 69° East 532 612 34,000  Level FlightAware ADS-B
Mon 01:52:31 AM 44.7840 -61.5650 69° East 532 612 34,000  Level FlightAware ADS-B
Mon 01:53:09 AM 44.8130 -61.4610 69° East 532 612 34,000  Level FlightAware ADS-B
Mon 01:53:51 AM 44.8950 -61.0860 73° East 535 616 34,000  Level FlightAware ADS-B
Mon 01:54:35 AM 44.9320 -60.9400 70° East 537 618 34,000  Level FlightAware ADS-B
Mon 01:55:15 AM 44.9630 -60.8120 71° East 539 620 34,000  Level FlightAware ADS-B
Mon 01:55:57 AM 44.9990 -60.6670 71° East 538 619 34,000  Level FlightAware ADS-B
Mon 01:56:41 AM 45.0360 -60.5200 70° East 537 618 34,000  Level FlightAware ADS-B
Mon 01:57:21 AM 45.0680 -60.3900 71° East 537 618 34,000  Level FlightAware ADS-B
Mon 01:58:04 AM 45.1010 -60.2510 71° East 536 617 34,000  Level FlightAware ADS-B
Mon 01:58:49 AM 45.1390 -60.0950 71° East 536 617 34,000  Level FlightAware ADS-B
Mon 01:59:28 AM 45.1690 -59.9690 71° East 537 618 34,000  Level FlightAware ADS-B
Mon 02:00:12 AM 45.2050 -59.8180 71° East 540 621 34,000  Level FlightAware ADS-B
Mon 02:00:52 AM 45.2370 -59.6850 71° East 537 618 34,000 -429 Level FlightAware ADS-B
Mon 02:01:36 AM 45.2710 -59.5380 72° East 532 612 33,400 -698 Descending FlightAware ADS-B
Mon 02:02:18 AM 45.3030 -59.4030 71° East 531 611 33,000 -289 Descending FlightAware ADS-B
Mon 02:02:59 AM 45.3330 -59.2670 73° East 533 613 33,000  Level FlightAware ADS-B
Mon 02:03:40 AM 45.3650 -59.1280 72° East 535 616 33,000  Level FlightAware ADS-B
Mon 02:04:24 AM 45.3980 -58.9780 73° East 539 620 33,000  Level FlightAware ADS-B
Mon 02:05:04 AM 45.4280 -58.8450 72° East 543 625 33,000  Level FlightAware ADS-B
Mon 02:05:48 AM 45.4620 -58.6940 72° East 547 629 33,000  Level FlightAware ADS-B
Mon 02:06:30 AM 45.4940 -58.5480 73° East 550 633 33,000  Level FlightAware ADS-B
Mon 02:07:10 AM 45.5250 -58.4130 72° East 550 633 33,000  Level FlightAware ADS-B
Mon 02:07:54 AM 45.5580 -58.2630 73° East 546 628 33,000  Level FlightAware ADS-B
Mon 02:08:36 AM 45.5900 -58.1170 73° East 546 628 33,000  Level FlightAware ADS-B
Mon 02:09:02 AM 45.6100 -58.0260 73° East 546 628 33,000  Level FlightAware ADS-B
Mon 02:09:42 AM 45.6370 -57.9030 73° East 546 628 33,000  Level FlightAware ADS-B
Mon 02:10:30 AM 45.6690 -57.7620 72° East 546 628 33,000  Level FlightAware ADS-B
Mon 02:11:07 AM 45.6940 -57.6540 72° East 546 628 33,000  Level FlightAware ADS-B
Mon 02:11:44 AM 45.7180 -57.5460 72° East 546 628 33,000  Level FlightAware ADS-B
Mon 02:12:32 AM 45.7500 -57.4060 72° East 546 628 33,000  Level FlightAware ADS-B
Mon 02:13:12 AM 45.7910 -57.1760 76° East 536 617 33,000  Level FlightAware ADS-B
Mon 02:13:51 AM 45.8150 -57.0630 73° East 536 617 33,000  Level FlightAware ADS-B
Mon 02:14:40 AM 45.8480 -56.8910 75° East 535 616 33,000  Level FlightAware ADS-B
Mon 02:15:24 AM 45.8780 -56.7400 74° East 534 615 33,000  Level FlightAware ADS-B
Mon 02:16:03 AM 45.9070 -56.5880 75° East 535 616 33,000  Level FlightAware ADS-B
Mon 02:16:59 AM 45.9450 -56.3970 74° East 537 618 33,000  Level FlightAware ADS-B
Mon 02:17:43 AM 45.9740 -56.2440 75° East 539 620 33,000  Level FlightAware ADS-B
Mon 02:18:23 AM 46.0010 -56.1040 74° East 541 623 33,000  Level FlightAware ADS-B
Mon 02:19:07 AM 46.0290 -55.9570 75° East 541 623 33,000  Level FlightAware ADS-B
Mon 02:19:46 AM 46.0550 -55.8200 75° East 543 625 33,000  Level FlightAware ADS-B
Mon 02:20:27 AM 46.0790 -55.6980 74° East 543 625 33,000  Level FlightAware ADS-B
Mon 02:21:09 AM 46.1090 -55.5300 75° East 545 627 33,000  Level FlightAware ADS-B
Mon 02:21:55 AM 46.1380 -55.3700 75° East 546 628 33,000  Level FlightAware ADS-B
Mon 02:22:23 AM 46.1560 -55.2700 75° East 546 628 33,000  Level FlightAware ADS-B
Mon 02:23:03 AM 46.1820 -55.1310 75° East 547 629 33,000  Level FlightAware ADS-B
Mon 02:24:01 AM 46.2160 -54.9390 76° East 547 629 33,000  Level FlightAware ADS-B
Mon 02:24:39 AM 46.2420 -54.7890 76° East 546 628 33,000  Level FlightAware ADS-B
Mon 02:25:25 AM 46.2710 -54.6240 76° East 546 628 33,000  Level FlightAware ADS-B
Mon 02:26:05 AM 46.2960 -54.4830 76° East 547 629 33,000  Level FlightAware ADS-B
Mon 02:26:49 AM 46.3230 -54.3270 76° East 548 631 33,000  Level FlightAware ADS-B
Mon 02:27:45 AM 46.3570 -54.1280 76° East 547 629 33,000  Level FlightAware ADS-B
Mon 02:28:27 AM 46.3830 -53.9780 76° East 547 629 33,000  Level FlightAware ADS-B
Mon 02:29:07 AM 46.4070 -53.8340 76° East 548 631 33,000  Level FlightAware ADS-B
Mon 02:29:53 AM 46.4340 -53.6730 76° East 548 631 33,000  Level FlightAware ADS-B
Mon 02:30:33 AM 46.4580 -53.5310 76° East 548 631 33,000  Level FlightAware ADS-B
Mon 02:31:17 AM 46.4840 -53.3710 77° East 548 631 33,000  Level FlightAware ADS-B
Mon 02:31:57 AM 46.5070 -53.2290 77° East 549 632 33,000  Level FlightAware ADS-B
Mon 02:32:41 AM 46.5330 -53.0690 77° East 550 633 33,000  Level FlightAware ADS-B
Mon 02:33:17 AM 46.5540 -52.9420 76° East 552 635 33,000  Level FlightAware ADS-B
Mon 02:34:05 AM 46.5820 -52.7680 77° East 554 638 33,000  Level FlightAware ADS-B
Mon 02:34:45 AM 46.6040 -52.6240 77° East 554 638 33,000  Level FlightAware ADS-B
Mon 02:35:29 AM 46.6290 -52.4620 77° East 554 638 33,000  Level FlightAware ADS-B
Mon 02:36:09 AM 46.6520 -52.3170 77° East 555 639 33,000  Level FlightAware ADS-B
Mon 02:36:49 AM 46.6740 -52.1720 77° East 554 638 33,000  Level FlightAware ADS-B
Mon 02:37:33 AM 46.6980 -52.0120 78° East 554 638 33,000  Level FlightAware ADS-B
Mon 02:38:13 AM 46.7200 -51.8650 78° East 554 638 33,000  Level FlightAware ADS-B
Mon 02:38:55 AM 46.7420 -51.7130 78° East 554 638 33,000  Level FlightAware ADS-B
Mon 02:39:53 AM 46.7700 -51.5220 78° East 553 636 33,000  Level FlightAware ADS-B
Mon 02:40:29 AM 46.7860 -51.4100 78° East 553 636 33,000  Level FlightAware ADS-B
Mon 02:41:15 AM 46.8070 -51.2680 78° East 553 636 33,000  Level FlightAware ADS-B
Mon 02:41:52 AM 46.8240 -51.1530 78° East 553 636 33,000  Level FlightAware ADS-B
Mon 02:42:41 AM 46.8460 -51.0000 78° East 553 636 33,000  Level FlightAware ADS-B
Mon 02:43:17 AM 46.8620 -50.8880 78° East 553 636 33,000  Level FlightAware ADS-B
Mon 02:44:21 AM 46.8910 -50.6890 78° East 553 636 33,000  Level FlightAware ADS-B
Mon 02:44:57 AM 46.9070 -50.5770 78° East 553 636 33,000  Level FlightAware ADS-B
Mon 02:45:35 AM 46.9250 -50.4590 77° East 553 636 33,000  Level FlightAware ADS-B
Mon 02:46:23 AM 46.9460 -50.3090 78° East 553 636 33,000  Level FlightAware ADS-B
Mon 02:47:00 AM 46.9630 -50.1940 78° East 553 636 33,000  Level FlightAware ADS-B
Mon 02:47:50 AM 46.9860 -50.0380 78° East 553 636 33,000  Level FlightAware ADS-B
Mon 02:48:29 AM 47.0030 -49.9160 78° East 553 636 33,000  Level FlightAware ADS-B
Mon 02:49:06 AM 47.0200 -49.8010 78° East 553 636 33,000  Level FlightAware ADS-B
Mon 02:49:38 AM 47.1167 -49.3667 78° East 540 621 33,000  Level Gander Center
Mon 02:50:00 AM 47.0000 -50.0000 70° East 546 628 33,000  Level ETMS Enhanced Traffic Management System
Mon 02:50:38 AM 47.1667 -49.1333 72° East 540 621 33,000  Level Gander Center
Mon 02:51:03 AM 47.1833 -49.0667 70° East 550 633 33,000  Level Gander Center
Mon 02:52:03 AM 47.2333 -48.8500 71° East 540 621 33,000  Level Gander Center
Mon 02:53:03 AM 47.3000 -48.6333 66° East 550 633 33,000  Level Gander Center
Mon 02:53:38 AM 47.3167 -48.5167 78° East 550 633 33,000  Level Gander Center
Mon 02:54:38 AM 47.3667 -48.3000 71° East 550 633 33,000  Level Gander Center
Mon 02:55:38 AM 47.4167 -48.0833 71° East 550 633 33,000  Level Gander Center
Mon 02:56:38 AM 47.4500 -47.8667 77° East 550 633 33,000  Level Gander Center
Mon 02:57:38 AM 47.5167 -47.6667 64° Northeast 560 644 33,000  Level Gander Center
Mon 02:58:38 AM 47.5500 -47.4500 77° East 540 621 33,000  Level Gander Center
Mon 02:59:38 AM 47.6000 -47.2667 68° East 550 633 33,000  Level Gander Center
Mon 03:01:00 AM 47.6663 -46.9768 71° East  Level FlightAware Approximate
Mon 03:02:00 AM 47.0000 -50.0000 70° East 546 628 33,000  Level ETMS Enhanced Traffic Management System
Mon 03:08:00 AM 48.0648 -45.3146 73° East 546 628 33,000  Level FlightAware Transoceanic
Mon 03:09:00 AM 48.1086 -45.0972 73° East 546 628 33,000  Level FlightAware Transoceanic
Mon 03:10:00 AM 48.1520 -44.8794 73° East 546 628 33,000  Level FlightAware Transoceanic
Mon 03:11:00 AM 48.1949 -44.6613 74° East 546 628 33,000  Level FlightAware Transoceanic
Mon 03:12:00 AM 48.2375 -44.4427 74° East 546 628 33,000  Level FlightAware Transoceanic
Mon 03:13:00 AM 48.2796 -44.2239 74° East 546 628 33,000  Level FlightAware Transoceanic
Mon 03:14:00 AM 48.3214 -44.0047 74° East 546 628 33,000  Level FlightAware Transoceanic
Mon 03:15:00 AM 48.3627 -43.7851 74° East 546 628 33,000  Level FlightAware Transoceanic
Mon 03:16:00 AM 48.4036 -43.5651 74° East 546 628 33,000  Level FlightAware Transoceanic
Mon 03:17:00 AM 48.4441 -43.3448 75° East 546 628 33,000  Level FlightAware Transoceanic
Mon 03:18:00 AM 48.4841 -43.1242 75° East 546 628 33,000  Level FlightAware Transoceanic
Mon 03:19:00 AM 48.5238 -42.9032 75° East 546 628 33,000  Level FlightAware Transoceanic
Mon 03:20:00 AM 48.5630 -42.6819 75° East 546 628 33,000  Level FlightAware Transoceanic
Mon 03:21:00 AM 48.6017 -42.4602 75° East 546 628 33,000  Level FlightAware Transoceanic
Mon 03:22:00 AM 48.6401 -42.2382 75° East 546 628 33,000  Level FlightAware Transoceanic
Mon 03:23:00 AM 48.6780 -42.0158 76° East 546 628 33,000  Level FlightAware Transoceanic
Mon 03:24:00 AM 48.7155 -41.7931 76° East 546 628 33,000  Level FlightAware Transoceanic
Mon 03:25:00 AM 48.7526 -41.5701 76° East 546 628 33,000  Level FlightAware Transoceanic
Mon 03:26:00 AM 48.7893 -41.3468 76° East 546 628 33,000  Level FlightAware Transoceanic
Mon 03:27:00 AM 48.8255 -41.1231 76° East 546 628 33,000  Level FlightAware Transoceanic
Mon 03:28:00 AM 48.8613 -40.8991 76° East 546 628 33,000  Level FlightAware Transoceanic
Mon 03:29:00 AM 48.8966 -40.6748 77° East 546 628 33,000  Level FlightAware Transoceanic
Mon 03:30:00 AM 48.9315 -40.4502 77° East 546 628 33,000  Level FlightAware Transoceanic
Mon 03:31:00 AM 48.9660 -40.2252 77° East 546 628 33,000  Level FlightAware Transoceanic
Mon 03:32:00 AM 48.9998 -40.0011 77° East  Level FlightAware Approximate
Mon 03:33:00 AM 49.0334 -39.7767 77° East  Level FlightAware Approximate
Mon 03:34:00 AM 49.0322 -39.7776 77° East  Level FlightAware Approximate
Mon 03:35:00 AM 49.0643 -39.5526 78° East  Level FlightAware Approximate
Mon 03:36:00 AM 49.0960 -39.3273 78° East  Level FlightAware Approximate
Mon 03:37:00 AM 49.1272 -39.1017 78° East  Level FlightAware Approximate
Mon 03:37:00 AM 49.0000 -40.0000 77° East 562 647 33,000  Level ETMS Enhanced Traffic Management System
Mon 03:38:00 AM 49.1580 -38.8759 78° East  Level FlightAware Approximate
Mon 03:39:00 AM 49.1884 -38.6497 78° East  Level FlightAware Approximate
Mon 03:40:00 AM 49.2183 -38.4233 78° East  Level FlightAware Approximate
Mon 03:41:00 AM 49.2478 -38.1966 79° East  Level FlightAware Approximate
Mon 03:42:00 AM 49.2768 -37.9697 79° East  Level FlightAware Approximate
Mon 03:43:00 AM 49.3158 -37.6587 79° East 562 647 33,000  Level FlightAware Transoceanic
Mon 03:44:00 AM 49.3448 -37.4230 79° East 562 647 33,000  Level FlightAware Transoceanic
Mon 03:45:00 AM 49.3732 -37.1870 80° East 562 647 33,000  Level FlightAware Transoceanic
Mon 03:46:00 AM 49.4012 -36.9507 80° East 562 647 33,000  Level FlightAware Transoceanic
Mon 03:47:00 AM 49.4288 -36.7142 80° East 562 647 33,000  Level FlightAware Transoceanic
Mon 03:48:00 AM 49.4558 -36.4773 80° East 562 647 33,000  Level FlightAware Transoceanic
Mon 03:49:00 AM 49.4824 -36.2403 80° East 562 647 33,000  Level FlightAware Transoceanic
Mon 03:50:00 AM 49.5084 -36.0030 80° East 562 647 33,000  Level FlightAware Transoceanic
Mon 03:51:00 AM 49.5340 -35.7654 81° East 562 647 33,000  Level FlightAware Transoceanic
Mon 03:52:00 AM 49.5591 -35.5276 81° East 562 647 33,000  Level FlightAware Transoceanic
Mon 03:53:00 AM 49.5837 -35.2895 81° East 562 647 33,000  Level FlightAware Transoceanic
Mon 03:54:00 AM 49.6078 -35.0512 81° East 562 647 33,000  Level FlightAware Transoceanic
Mon 03:55:00 AM 49.6315 -34.8127 81° East 562 647 33,000  Level FlightAware Transoceanic
Mon 03:56:00 AM 49.6546 -34.5739 82° East 562 647 33,000  Level FlightAware Transoceanic
Mon 03:57:00 AM 49.6772 -34.3349 82° East 562 647 33,000  Level FlightAware Transoceanic
Mon 03:58:00 AM 49.6994 -34.0957 82° East 562 647 33,000  Level FlightAware Transoceanic
Mon 03:59:00 AM 49.7211 -33.8563 82° East 562 647 33,000  Level FlightAware Transoceanic
Mon 04:00:00 AM 49.7422 -33.6167 82° East 562 647 33,000  Level FlightAware Transoceanic
Mon 04:01:00 AM 49.7629 -33.3768 82° East 562 647 33,000  Level FlightAware Transoceanic
Mon 04:02:00 AM 49.7831 -33.1368 83° East 562 647 33,000  Level FlightAware Transoceanic
Mon 04:03:00 AM 49.8028 -32.8966 83° East 562 647 33,000  Level FlightAware Transoceanic
Mon 04:04:00 AM 49.8220 -32.6561 83° East 562 647 33,000  Level FlightAware Transoceanic
Mon 04:05:00 AM 49.8406 -32.4155 83° East 562 647 33,000  Level FlightAware Transoceanic
Mon 04:06:00 AM 49.8588 -32.1747 83° East 562 647 33,000  Level FlightAware Transoceanic
Mon 04:07:00 AM 49.8765 -31.9337 84° East 562 647 33,000  Level FlightAware Transoceanic
Mon 04:08:00 AM 49.8937 -31.6926 84° East 562 647 33,000  Level FlightAware Transoceanic
Mon 04:09:00 AM 49.9104 -31.4512 84° East 562 647 33,000  Level FlightAware Transoceanic
Mon 04:10:00 AM 49.9266 -31.2097 84° East 562 647 33,000  Level FlightAware Transoceanic
Mon 04:11:00 AM 49.9423 -30.9681 84° East 562 647 33,000  Level FlightAware Transoceanic
Mon 04:12:00 AM 49.9575 -30.7263 85° East 562 647 33,000  Level FlightAware Transoceanic
Mon 04:13:00 AM 49.9721 -30.4843 85° East 562 647 33,000  Level FlightAware Transoceanic
Mon 04:14:00 AM 49.9863 -30.2422 85° East 562 647 33,000  Level FlightAware Transoceanic
Mon 04:15:00 AM 49.9995 -30.0084 85° East  Level FlightAware Approximate
Mon 04:16:00 AM 50.0121 -29.7744 85° East  Level FlightAware Approximate
Mon 04:17:00 AM 50.0308 -29.7873 77° East  Level FlightAware Approximate
Mon 04:17:00 AM 50.0000 -30.0000 77° East 564 649 33,000  Level ETMS Enhanced Traffic Management System
Mon 04:18:00 AM 50.0635 -29.5578 77° East  Level FlightAware Approximate
Mon 04:19:00 AM 50.0958 -29.3281 78° East  Level FlightAware Approximate
Mon 04:20:00 AM 50.1276 -29.0980 78° East  Level FlightAware Approximate
Mon 04:21:00 AM 50.1590 -28.8677 78° East  Level FlightAware Approximate
Mon 04:22:00 AM 50.1899 -28.6370 78° East  Level FlightAware Approximate
Mon 04:23:00 AM 50.2619 -28.0847 79° East 564 649 33,000  Level FlightAware Transoceanic
Mon 04:24:00 AM 50.2924 -27.8438 79° East 564 649 33,000  Level FlightAware Transoceanic
Mon 04:25:00 AM 50.3224 -27.6027 79° East 564 649 33,000  Level FlightAware Transoceanic
Mon 04:26:00 AM 50.3519 -27.3612 79° East 564 649 33,000  Level FlightAware Transoceanic
Mon 04:27:00 AM 50.3809 -27.1194 79° East 564 649 33,000  Level FlightAware Transoceanic
Mon 04:28:00 AM 50.4094 -26.8774 80° East 564 649 33,000  Level FlightAware Transoceanic
Mon 04:29:00 AM 50.4374 -26.6350 80° East 564 649 33,000  Level FlightAware Transoceanic
Mon 04:30:00 AM 50.4650 -26.3924 80° East 564 649 33,000  Level FlightAware Transoceanic
Mon 04:31:00 AM 50.4920 -26.1495 80° East 564 649 33,000  Level FlightAware Transoceanic
Mon 04:32:00 AM 50.5184 -25.9063 80° East 564 649 33,000  Level FlightAware Transoceanic
Mon 04:33:00 AM 50.5444 -25.6629 81° East 564 649 33,000  Level FlightAware Transoceanic
Mon 04:34:00 AM 50.5699 -25.4191 81° East 564 649 33,000  Level FlightAware Transoceanic
Mon 04:35:00 AM 50.5949 -25.1752 81° East 564 649 33,000  Level FlightAware Transoceanic
Mon 04:36:00 AM 50.6193 -24.9309 81° East 564 649 33,000  Level FlightAware Transoceanic
Mon 04:37:00 AM 50.6433 -24.6864 81° East 564 649 33,000  Level FlightAware Transoceanic
Mon 04:38:00 AM 50.6667 -24.4417 82° East 564 649 33,000  Level FlightAware Transoceanic
Mon 04:39:00 AM 50.6896 -24.1967 82° East 564 649 33,000  Level FlightAware Transoceanic
Mon 04:40:00 AM 50.7120 -23.9515 82° East 564 649 33,000  Level FlightAware Transoceanic
Mon 04:41:00 AM 50.7339 -23.7061 82° East 564 649 33,000  Level FlightAware Transoceanic
Mon 04:42:00 AM 50.7553 -23.4604 82° East 564 649 33,000  Level FlightAware Transoceanic
Mon 04:43:00 AM 50.7762 -23.2145 82° East 564 649 33,000  Level FlightAware Transoceanic
Mon 04:44:00 AM 50.7965 -22.9684 83° East 564 649 33,000  Level FlightAware Transoceanic
Mon 04:45:00 AM 50.8163 -22.7220 83° East 564 649 33,000  Level FlightAware Transoceanic
Mon 04:46:00 AM 50.8357 -22.4755 83° East 564 649 33,000  Level FlightAware Transoceanic
Mon 04:47:00 AM 50.8544 -22.2288 83° East 564 649 33,000  Level FlightAware Transoceanic
Mon 04:48:00 AM 50.8727 -21.9818 83° East 564 649 33,000  Level FlightAware Transoceanic
Mon 04:49:00 AM 50.8904 -21.7347 84° East 564 649 33,000  Level FlightAware Transoceanic
Mon 04:50:00 AM 50.9077 -21.4874 84° East 564 649 33,000  Level FlightAware Transoceanic
Mon 04:51:00 AM 50.9244 -21.2399 84° East 564 649 33,000  Level FlightAware Transoceanic
Mon 04:52:00 AM 50.9405 -20.9923 84° East 564 649 33,000  Level FlightAware Transoceanic
Mon 04:53:00 AM 50.9562 -20.7444 84° East 564 649 33,000  Level FlightAware Transoceanic
Mon 04:54:00 AM 50.9713 -20.4965 85° East 564 649 33,000  Level FlightAware Transoceanic
Mon 04:55:00 AM 50.9859 -20.2483 85° East 564 649 33,000 49 Level FlightAware Transoceanic
Mon 04:56:00 AM 50.9995 -20.0095 85° East  Level FlightAware Approximate
Mon 04:57:00 AM 51.0126 -19.7705 85° East  Level FlightAware Approximate
Mon 04:58:00 AM 50.9758 -19.7827 100° East  Level FlightAware Approximate
Mon 04:59:00 AM 50.9491 -19.5468 100° East  Level FlightAware Approximate
Mon 05:00:00 AM 50.9219 -19.3113 100° East  Level FlightAware Approximate
Mon 05:01:00 AM 50.8942 -19.0760 100° East  Level FlightAware Approximate
Mon 05:02:00 AM 50.8661 -18.8410 101° East  Level FlightAware Approximate
Mon 05:03:00 AM 50.8375 -18.6062 101° East  Level FlightAware Approximate
Mon 05:04:00 AM 50.8084 -18.3718 101° East  Level FlightAware Approximate
Mon 05:05:00 AM 50.7789 -18.1377 101° East  Level FlightAware Approximate
Mon 05:06:00 AM 50.7488 -17.9038 101° East  Level FlightAware Approximate
Mon 05:07:00 AM 50.7183 -17.6703 102° East  Level FlightAware Approximate
Mon 05:08:00 AM 50.6874 -17.4370 102° East  Level FlightAware Approximate
Mon 05:09:00 AM 50.6560 -17.2041 102° East  Level FlightAware Approximate
Mon 05:10:00 AM 50.6241 -16.9715 102° East  Level FlightAware Approximate
Mon 05:11:00 AM 50.5917 -16.7392 102° East  Level FlightAware Approximate
Mon 05:12:00 AM 50.5589 -16.5073 102° East  Level FlightAware Approximate
Mon 05:13:00 AM 50.5257 -16.2756 103° East  Level FlightAware Approximate
Mon 05:14:00 AM 50.4919 -16.0443 103° East  Level FlightAware Approximate
Mon 05:15:00 AM 50.4577 -15.8133 103° East  Level FlightAware Approximate
Mon 05:16:00 AM 50.4231 -15.5827 103° East  Level FlightAware Approximate
Mon 05:17:00 AM 50.3880 -15.3523 103° East  Level FlightAware Approximate
Mon 05:18:00 AM 50.3525 -15.1224 104° East  Level FlightAware Approximate
Mon 05:19:00 AM 50.3163 -14.8928 104° East  Level FlightAware Approximate
Mon 05:20:00 AM 50.2794 -14.6637 104° East  Level FlightAware Approximate
Mon 05:21:00 AM 50.2421 -14.4349 104° East  Level FlightAware Approximate
Mon 05:22:00 AM 50.2044 -14.2065 104° East  Level FlightAware Approximate
Mon 05:23:00 AM 50.1662 -13.9785 105° East  Level FlightAware Approximate
Mon 05:24:00 AM 50.1276 -13.7508 105° East  Level FlightAware Approximate
Mon 05:25:00 AM 50.0885 -13.5235 105° East  Level FlightAware Approximate
Mon 05:26:00 AM 50.0490 -13.2966 105° East  Level FlightAware Approximate
Mon 05:27:00 AM 50.0091 -13.0701 105° East  Level FlightAware Approximate
Mon 05:28:00 AM 49.9687 -12.8439 105° East  Level FlightAware Approximate
Mon 05:29:00 AM 49.9278 -12.6181 106° East  Level FlightAware Approximate
Mon 05:30:00 AM 49.8866 -12.3927 106° East  Level FlightAware Approximate
Mon 05:31:00 AM 49.8449 -12.1676 106° East  Level FlightAware Approximate
Mon 05:32:00 AM 49.8027 -11.9430 106° East  Level FlightAware Approximate
Mon 05:33:00 AM 49.7601 -11.7188 106° East  Level FlightAware Approximate
Mon 05:34:00 AM 49.7171 -11.4949 106° East  Level FlightAware Approximate
Mon 05:34:51 AM 50.1730 -11.0670 107° East 563 648 35,000  Level FlightAware ADS-B
Mon 05:35:00 AM 49.6737 -11.2715 107° East  Level FlightAware Approximate
Mon 05:35:35 AM 50.1330 -10.8920 110° East 565 650 35,000  Level FlightAware ADS-B
Mon 05:36:17 AM 50.0960 -10.7360 110° East 565 650 35,000  Level FlightAware ADS-B
Mon 05:36:58 AM 50.0590 -10.5780 110° East 565 650 35,000  Level FlightAware ADS-B
Mon 05:37:31 AM 50.0300 -10.4550 110° East 565 650 35,000  Level FlightAware ADS-B
Mon 05:38:17 AM 49.9870 -10.2750 110° East 565 650 35,000  Level FlightAware ADS-B
Mon 05:39:03 AM 49.9460 -10.1040 110° East 564 649 35,000  Level FlightAware ADS-B
Mon 05:39:45 AM 49.9080 -9.9450 110° East 564 649 35,000  Level FlightAware ADS-B
Mon 05:40:23 AM 49.8720 -9.7960 111° Southeast 564 649 35,000  Level FlightAware ADS-B
Mon 05:41:05 AM 49.8330 -9.6360 111° Southeast 565 650 35,000  Level FlightAware ADS-B
Mon 05:41:51 AM 49.7900 -9.4630 111° Southeast 565 650 35,000  Level FlightAware ADS-B
Mon 05:42:32 AM 49.7530 -9.3110 111° Southeast 566 651 35,000  Level FlightAware ADS-B
Mon 05:43:17 AM 49.7100 -9.1400 111° Southeast 566 651 35,000  Level FlightAware ADS-B
Mon 05:43:50 AM 49.6799 -8.9846 111° Southeast 496 571 35,000  Level FlightAware UK
Mon 05:43:57 AM 49.6730 -8.9890 111° Southeast 567 652 35,000  Level FlightAware ADS-B
Mon 05:44:41 AM 49.6320 -8.8270 111° Southeast 567 652 35,000  Level FlightAware ADS-B
Mon 05:45:20 AM 49.5942 -8.6459 111° Southeast 496 571 35,000  Level FlightAware UK
Mon 05:45:23 AM 49.5900 -8.6640 111° Southeast 568 654 35,000  Level FlightAware ADS-B
Mon 05:46:03 AM 49.5530 -8.5180 111° Southeast 568 654 35,000  Level FlightAware ADS-B
Mon 05:46:41 AM 49.5150 -8.3710 112° Southeast 567 652 35,000  Level FlightAware ADS-B
Mon 05:47:20 AM 49.4782 -8.1962 112° Southeast 494 568 35,000  Level FlightAware UK
Mon 05:47:27 AM 49.4710 -8.2010 112° Southeast 566 651 35,000  Level FlightAware ADS-B
Mon 05:48:09 AM 49.4300 -8.0410 111° Southeast 566 651 35,000  Level FlightAware ADS-B
Mon 05:48:50 AM 49.3898 -7.8599 111° Southeast 494 568 35,000  Level FlightAware UK
Mon 05:48:53 AM 49.3870 -7.8790 111° Southeast 566 651 35,000  Level FlightAware ADS-B
Mon 05:49:39 AM 49.3420 -7.7090 112° Southeast 565 650 35,000  Level FlightAware ADS-B
Mon 05:50:07 AM 49.3140 -7.6050 112° Southeast 563 648 35,000  Level FlightAware ADS-B
Mon 05:50:50 AM 49.2639 -7.4222 112° Southeast 492 566 35,000  Level FlightAware UK
Mon 05:50:51 AM 49.2640 -7.4480 112° Southeast 563 648 35,000  Level FlightAware ADS-B
Mon 05:51:33 AM 49.2120 -7.3020 119° Southeast 562 647 35,000  Level FlightAware ADS-B
Mon 05:52:13 AM 49.1610 -7.1600 119° Southeast 562 647 35,000  Level FlightAware ADS-B
Mon 05:52:56 AM 49.1053 -6.9854 119° Southeast 492 566 35,000  Level FlightAware UK
Mon 05:52:57 AM 49.1050 -7.0080 119° Southeast 562 647 35,000  Level FlightAware ADS-B
Mon 05:53:33 AM 49.0587 -6.8611 119° Southeast 492 566 35,000  Level FlightAware UK
Mon 05:53:38 AM 49.0550 -6.8730 119° Southeast 562 647 35,000  Level FlightAware ADS-B
Mon 05:54:22 AM 48.9960 -6.7190 120° Southeast 563 648 35,000  Level FlightAware ADS-B
Mon 05:55:03 AM 48.9440 -6.5800 120° Southeast 564 649 35,000  Level FlightAware ADS-B
Mon 05:55:39 AM 48.8939 -6.4308 120° Southeast 492 566 35,000  Level FlightAware UK
Mon 05:55:43 AM 48.8910 -6.4430 120° Southeast 564 649 35,000  Level FlightAware ADS-B
Mon 05:56:24 AM 48.8370 -6.3020 120° Southeast 565 650 35,000  Level FlightAware ADS-B
Mon 05:56:57 AM 48.7908 -6.1650 120° Southeast 492 566 35,000  Level FlightAware UK
Mon 05:57:08 AM 48.7790 -6.1510 120° Southeast 565 650 35,000  Level FlightAware ADS-B
Mon 05:57:52 AM 48.7200 -6.0010 121° Southeast 565 650 35,000  Level FlightAware ADS-B
Mon 05:58:33 AM 48.6635 -5.8379 121° Southeast 492 566 35,000  Level FlightAware UK
Mon 05:58:33 AM 48.6650 -5.8600 121° Southeast 567 652 35,000  Level FlightAware ADS-B
Mon 05:59:03 AM 48.6229 -5.7353 121° Southeast 494 568 35,000  Level FlightAware UK
Mon 05:59:13 AM 48.6130 -5.7250 121° Southeast 567 652 35,000  Level FlightAware ADS-B
Mon 05:59:51 AM 48.5630 -5.6000 121° Southeast 568 654 35,000  Level FlightAware ADS-B
Mon 06:00:38 AM 48.4970 -5.4330 121° Southeast 566 651 35,000  Level FlightAware ADS-B
Mon 06:01:19 AM 48.4440 -5.3000 121° Southeast 566 651 35,000  Level FlightAware ADS-B
Mon 06:02:00 AM 48.3880 -5.1580 121° Southeast 566 651 35,000  Level FlightAware ADS-B
Mon 06:02:33 AM 48.3392 -5.0257 121° Southeast 494 568 35,000  Level FlightAware UK
Mon 06:02:46 AM 48.3250 -5.0010 121° Southeast 566 651 35,000  Level FlightAware ADS-B
Mon 06:03:26 AM 48.2700 -4.8680 122° Southeast 566 651 35,000  Level FlightAware ADS-B
Mon 06:04:06 AM 48.2170 -4.7350 121° Southeast 566 651 35,000  Level FlightAware ADS-B
Mon 06:04:50 AM 48.1560 -4.5870 122° Southeast 568 654 35,000  Level FlightAware ADS-B
Mon 06:05:30 AM 48.1020 -4.4540 121° Southeast 568 654 35,000  Level FlightAware ADS-B
Mon 06:06:15 AM 48.0410 -4.3040 121° Southeast 568 654 35,000  Level FlightAware ADS-B
Mon 06:06:59 AM 47.9810 -4.1570 121° Southeast 567 652 35,000  Level FlightAware ADS-B
Mon 06:07:39 AM 47.9250 -4.0210 122° Southeast 567 652 35,000  Level FlightAware ADS-B
Mon 06:08:11 AM 47.8800 -3.9140 122° Southeast 567 652 35,000  Level FlightAware ADS-B
Mon 06:08:57 AM 47.8160 -3.7620 122° Southeast 566 651 35,000  Level FlightAware ADS-B
Mon 06:09:37 AM 47.7620 -3.6330 122° Southeast 566 651 35,000  Level FlightAware ADS-B
Mon 06:10:17 AM 47.7060 -3.5000 122° Southeast 566 651 35,000  Level FlightAware ADS-B
Mon 06:11:01 AM 47.6450 -3.3550 122° Southeast 565 650 35,000  Level FlightAware ADS-B
Mon 06:11:41 AM 47.5890 -3.2250 123° Southeast 564 649 35,000  Level FlightAware ADS-B
Mon 06:12:25 AM 47.5270 -3.0800 122° Southeast 565 650 35,000  Level FlightAware ADS-B
Mon 06:13:07 AM 47.4680 -2.9420 122° Southeast 564 649 35,000  Level FlightAware ADS-B
Mon 06:13:49 AM 47.4090 -2.8070 123° Southeast 563 648 35,000  Level FlightAware ADS-B
Mon 06:14:29 AM 47.3550 -2.6820 122° Southeast 563 648 35,000  Level FlightAware ADS-B
Mon 06:14:59 AM 47.3110 -2.5820 123° Southeast 563 648 35,000  Level FlightAware ADS-B
Mon 06:15:33 AM 47.2630 -2.4730 123° Southeast 563 648 35,000  Level FlightAware ADS-B
Mon 06:16:17 AM 47.2010 -2.3330 123° Southeast 562 647 35,000  Level FlightAware ADS-B
Mon 06:16:57 AM 47.1450 -2.2060 123° Southeast 562 647 35,000  Level FlightAware ADS-B
Mon 06:17:41 AM 47.0810 -2.0620 123° Southeast 562 647 35,000  Level FlightAware ADS-B
Mon 06:18:23 AM 47.0210 -1.9290 123° Southeast 563 648 35,000  Level FlightAware ADS-B
Mon 06:19:04 AM 46.9630 -1.8010 124° Southeast 563 648 35,000  Level FlightAware ADS-B
Mon 06:19:47 AM 46.9000 -1.6620 124° Southeast 563 648 35,000  Level FlightAware ADS-B
Mon 06:20:30 AM 46.8390 -1.5290 124° Southeast 562 647 35,000  Level FlightAware ADS-B
Mon 06:21:13 AM 46.7760 -1.3920 124° Southeast 562 647 35,000  Level FlightAware ADS-B
Mon 06:21:53 AM 46.7180 -1.2660 124° Southeast 560 644 35,000  Level FlightAware ADS-B
Mon 06:22:37 AM 46.6550 -1.1290 124° Southeast 561 646 35,000  Level FlightAware ADS-B
Mon 06:23:17 AM 46.6040 -0.9980 120° Southeast 560 644 35,000  Level FlightAware ADS-B
Mon 06:23:58 AM 46.5550 -0.8670 119° Southeast 560 644 35,000  Level FlightAware ADS-B
Mon 06:24:56 AM 46.4810 -0.6770 119° Southeast 561 646 35,000  Level FlightAware ADS-B
Mon 06:25:36 AM 46.4330 -0.5570 120° Southeast 562 647 35,000  Level FlightAware ADS-B
Mon 06:26:16 AM 46.3790 -0.4250 121° Southeast 562 647 35,000  Level FlightAware ADS-B
Mon 06:27:01 AM 46.3190 -0.2810 121° Southeast 563 648 35,000  Level FlightAware ADS-B
Mon 06:27:41 AM 46.2630 -0.1470 121° Southeast 563 648 35,000  Level FlightAware ADS-B
Mon 06:28:21 AM 46.2130 -0.0200 120° Southeast 561 646 35,000  Level FlightAware ADS-B
Mon 06:29:06 AM 46.1690 0.1460 111° Southeast 559 643 35,000  Level FlightAware ADS-B
Mon 06:29:46 AM 46.1330 0.2850 110° East 560 644 35,000  Level FlightAware ADS-B
Mon 06:30:31 AM 46.0940 0.4340 111° Southeast 560 644 35,000  Level FlightAware ADS-B
Mon 06:31:11 AM 46.0570 0.5740 111° Southeast 560 644 35,000  Level FlightAware ADS-B
Mon 06:31:51 AM 46.0320 0.7210 104° East 546 628 35,000  Level FlightAware ADS-B
Mon 06:32:36 AM 46.0360 0.8830 88° East 542 624 35,000  Level FlightAware ADS-B
Mon 06:33:16 AM 46.0370 1.0160 89° East 545 627 35,000  Level FlightAware ADS-B
Mon 06:34:02 AM 46.0330 1.1790 92° East 547 629 35,000  Level FlightAware ADS-B
Mon 06:34:41 AM 46.0290 1.3260 92° East 550 633 35,000  Level FlightAware ADS-B
Mon 06:35:51 AM 46.0250 1.5890 91° East 547 629 35,000  Level FlightAware ADS-B
Mon 06:36:36 AM 46.0250 1.7530 90° East 547 629 35,000  Level FlightAware ADS-B
Mon 06:37:15 AM 46.0240 1.9010 91° East 547 629 35,000  Level FlightAware ADS-B
Mon 06:37:56 AM 46.0230 2.0290 91° East 548 631 35,000  Level FlightAware ADS-B
Mon 06:38:41 AM 46.0210 2.2040 91° East 549 632 35,000  Level FlightAware ADS-B
Mon 06:39:25 AM 46.0190 2.3710 91° East 550 633 35,000  Level FlightAware ADS-B
Mon 06:40:05 AM 46.0170 2.5230 91° East 552 635 35,000  Level FlightAware ADS-B
Mon 06:40:43 AM 46.0150 2.6460 91° East 554 638 35,000  Level FlightAware ADS-B
Mon 06:41:29 AM 45.9840 2.8210 104° East 578 665 35,000  Level FlightAware ADS-B
Mon 06:41:55 AM 45.9400 2.8960 130° Southeast 581 669 35,000  Level FlightAware ADS-B
Mon 06:42:39 AM 45.8490 3.0130 138° Southeast 583 671 35,000  Level FlightAware ADS-B
Mon 06:43:21 AM 45.7620 3.1200 139° Southeast 584 672 35,000  Level FlightAware ADS-B
Mon 06:44:16 AM 45.6550 3.2540 139° Southeast 585 673 35,000  Level FlightAware ADS-B
Mon 06:44:56 AM 45.5750 3.3530 139° Southeast 585 673 35,000  Level FlightAware ADS-B
Mon 06:45:39 AM 45.4860 3.4640 139° Southeast 580 667 35,000  Level FlightAware ADS-B
Mon 06:46:35 AM 45.3690 3.6080 139° Southeast 580 667 35,000  Level FlightAware ADS-B
Mon 06:47:21 AM 45.2810 3.7380 134° Southeast 583 671 35,000  Level FlightAware ADS-B
Mon 06:47:59 AM 45.2230 3.8560 125° Southeast 582 670 35,000  Level FlightAware ADS-B
Mon 06:48:38 AM 45.1740 3.9650 122° Southeast 578 665 35,000  Level FlightAware ADS-B
Mon 06:49:42 AM 45.0920 4.1540 122° Southeast 578 665 35,000  Level FlightAware ADS-B
Mon 06:50:20 AM 45.0260 4.3110 121° Southeast 577 664 35,000  Level FlightAware ADS-B
Mon 06:51:00 AM 44.9700 4.4440 121° Southeast 576 663 35,000  Level FlightAware ADS-B
Mon 06:51:45 AM 44.9110 4.5850 121° Southeast 575 662 35,000  Level FlightAware ADS-B
Mon 06:52:26 AM 44.8510 4.7170 123° Southeast 576 663 35,000  Level FlightAware ADS-B
Mon 06:53:06 AM 44.7890 4.8420 125° Southeast 575 662 35,000  Level FlightAware ADS-B
Mon 06:53:51 AM 44.7180 4.9840 125° Southeast 576 663 35,000  Level FlightAware ADS-B
Mon 06:54:31 AM 44.6580 5.1070 124° Southeast 577 664 35,000 282 Level FlightAware ADS-B
Mon 06:55:16 AM 44.5900 5.2450 125° Southeast 576 663 35,400 706 Climbing FlightAware ADS-B
Mon 06:55:56 AM 44.5280 5.3720 124° Southeast 574 661 36,000 450 Climbing FlightAware ADS-B
Mon 06:56:36 AM 44.4690 5.4930 124° Southeast 574 661 36,000  Level FlightAware ADS-B
Mon 06:57:21 AM 44.4010 5.6310 125° Southeast 568 654 36,000  Level FlightAware ADS-B
Mon 06:58:01 AM 44.3440 5.7460 125° Southeast 564 649 36,000  Level FlightAware ADS-B
Mon 06:58:46 AM 44.2730 5.8870 125° Southeast 562 647 36,000 353 Level FlightAware ADS-B
Mon 06:59:26 AM 44.2140 6.0020 126° Southeast 559 643 36,500 750 Climbing FlightAware ADS-B
Mon 07:00:06 AM 44.1540 6.1210 125° Southeast 556 640 37,000 353 Climbing FlightAware ADS-B
Mon 07:00:51 AM 44.0920 6.2580 122° Southeast 561 646 37,000  Level FlightAware ADS-B
Mon 07:01:31 AM 44.0440 6.3770 119° Southeast 555 639 37,000  Level FlightAware ADS-B
Mon 07:02:11 AM 43.9910 6.5100 119° Southeast 559 643 37,000  Level FlightAware ADS-B
Mon 07:02:56 AM 43.9350 6.6510 119° Southeast 554 638 37,000  Level FlightAware ADS-B
Mon 07:03:50 AM 43.8680 6.8210 119° Southeast 562 647 37,000  Level FlightAware ADS-B
Mon 07:04:35 AM 43.8110 6.9630 119° Southeast 563 648 37,000  Level FlightAware ADS-B
Mon 07:05:16 AM 43.7630 7.0880 118° Southeast 561 646 37,000  Level FlightAware ADS-B
Mon 07:06:00 AM 43.7030 7.2320 120° Southeast 564 649 37,000  Level FlightAware ADS-B
Mon 07:06:40 AM 43.6510 7.3560 120° Southeast 563 648 37,000  Level FlightAware ADS-B
Mon 07:07:22 AM 43.5850 7.4750 127° Southeast 563 648 37,000  Level FlightAware ADS-B
Mon 07:08:02 AM 43.5260 7.5870 126° Southeast 567 652 37,000  Level FlightAware ADS-B
Mon 07:08:47 AM 43.4590 7.7200 125° Southeast 571 657 37,000  Level FlightAware ADS-B
Mon 07:09:27 AM 43.3990 7.8410 124° Southeast 572 658 37,000  Level FlightAware ADS-B
Mon 07:10:07 AM 43.3420 7.9560 124° Southeast 572 658 37,000  Level FlightAware ADS-B
Mon 07:10:47 AM 43.2800 8.0820 124° Southeast 571 657 37,000  Level FlightAware ADS-B
Mon 07:11:36 AM 43.2070 8.2300 124° Southeast 570 656 37,000  Level FlightAware ADS-B
Mon 07:12:32 AM 43.1240 8.3980 124° Southeast 563 648 37,000  Level FlightAware ADS-B
Mon 07:13:10 AM 43.0680 8.5120 124° Southeast 560 644 37,000  Level FlightAware ADS-B
Mon 07:13:54 AM 43.0040 8.6400 124° Southeast 556 640 37,000  Level FlightAware ADS-B
Mon 07:14:36 AM 42.9420 8.7620 125° Southeast 553 636 37,000  Level FlightAware ADS-B
Mon 07:15:20 AM 42.8800 8.8850 124° Southeast 550 633 37,000  Level FlightAware ADS-B
Mon 07:16:02 AM 42.8190 9.0050 125° Southeast 548 631 37,000  Level FlightAware ADS-B
Mon 07:16:44 AM 42.7590 9.1230 125° Southeast 548 631 37,000  Level FlightAware ADS-B
Mon 07:17:24 AM 42.7000 9.2380 125° Southeast 547 629 37,000  Level FlightAware ADS-B
Mon 07:18:09 AM 42.6340 9.3680 125° Southeast 547 629 37,000  Level FlightAware ADS-B
Mon 07:19:04 AM 42.5680 9.5310 119° Southeast 554 638 37,000  Level FlightAware ADS-B
Mon 07:19:44 AM 42.5330 9.6630 110° East 553 636 37,000  Level FlightAware ADS-B
Mon 07:20:30 AM 42.4930 9.8070 111° Southeast 549 632 37,000  Level FlightAware ADS-B
Mon 07:21:12 AM 42.4350 9.9310 122° Southeast 543 625 37,000  Level FlightAware ADS-B
Mon 07:21:52 AM 42.3800 10.0440 123° Southeast 544 626 37,000  Level FlightAware ADS-B
Mon 07:22:34 AM 42.3240 10.1660 122° Southeast 545 627 37,000  Level FlightAware ADS-B
Mon 07:23:15 AM 42.2690 10.2870 122° Southeast 546 628 37,000  Level FlightAware ADS-B
Mon 07:24:10 AM 42.1960 10.4410 123° Southeast 540 621 37,000  Level FlightAware ADS-B
Mon 07:24:55 AM 42.1350 10.5670 123° Southeast 538 619 37,000  Level FlightAware ADS-B
Mon 07:25:35 AM 42.0790 10.6810 123° Southeast 537 618 37,000  Level FlightAware ADS-B
Mon 07:26:15 AM 42.0230 10.7940 124° Southeast 536 617 37,000  Level FlightAware ADS-B
Mon 07:27:00 AM 41.9620 10.9190 123° Southeast 536 617 37,000  Level FlightAware ADS-B
Mon 07:27:40 AM 41.9060 11.0320 124° Southeast 535 616 37,000  Level FlightAware ADS-B
Mon 07:28:21 AM 41.8510 11.1430 124° Southeast 538 619 37,000  Level FlightAware ADS-B
Mon 07:29:05 AM 41.7880 11.2700 124° Southeast 538 619 37,000  Level FlightAware ADS-B
Mon 07:29:45 AM 41.7330 11.3810 124° Southeast 538 619 37,000  Level FlightAware ADS-B
Mon 07:30:30 AM 41.6700 11.5060 124° Southeast 536 617 37,000  Level FlightAware ADS-B
Mon 07:31:10 AM 41.6140 11.6170 124° Southeast 533 613 37,000  Level FlightAware ADS-B
Mon 07:31:50 AM 41.5590 11.7260 124° Southeast 530 610 37,000  Level FlightAware ADS-B
Mon 07:32:35 AM 41.4970 11.8480 124° Southeast 526 605 37,000  Level FlightAware ADS-B
Mon 07:33:15 AM 41.4420 11.9570 124° Southeast 523 602 37,000  Level FlightAware ADS-B
Mon 07:33:55 AM 41.3890 12.0600 124° Southeast 523 602 37,000  Level FlightAware ADS-B
Mon 07:34:40 AM 41.3300 12.1760 124° Southeast 521 600 37,000  Level FlightAware ADS-B
Mon 07:35:21 AM 41.2700 12.2930 124° Southeast 520 598 37,000  Level FlightAware ADS-B
Mon 07:36:01 AM 41.2150 12.3990 125° Southeast 517 595 37,000  Level FlightAware ADS-B
Mon 07:37:02 AM 41.1320 12.5590 125° Southeast 523 602 37,000  Level FlightAware ADS-B
Mon 07:37:42 AM 41.0820 12.6690 121° Southeast 529 609 37,000  Level FlightAware ADS-B
Mon 07:38:22 AM 41.0320 12.7820 120° Southeast 527 606 37,000  Level FlightAware ADS-B
Mon 07:39:07 AM 40.9760 12.9100 120° Southeast 526 605 37,000  Level FlightAware ADS-B
Mon 07:39:47 AM 40.9270 13.0200 120° Southeast 524 603 37,000  Level FlightAware ADS-B
Mon 07:40:32 AM 40.8730 13.1420 120° Southeast 523 602 37,000  Level FlightAware ADS-B
Mon 07:41:12 AM 40.8230 13.2540 121° Southeast 524 603 37,000  Level FlightAware ADS-B
Mon 07:41:52 AM 40.7740 13.3640 120° Southeast 524 603 37,000  Level FlightAware ADS-B
Mon 07:42:37 AM 40.7200 13.4850 120° Southeast 526 605 37,000  Level FlightAware ADS-B
Mon 07:43:19 AM 40.6670 13.6030 121° Southeast 528 608 37,000  Level FlightAware ADS-B
Mon 07:44:03 AM 40.6110 13.7270 121° Southeast 530 610 37,000  Level FlightAware ADS-B
Mon 07:44:45 AM 40.5580 13.8440 121° Southeast 529 609 37,000  Level FlightAware ADS-B
Mon 07:45:23 AM 40.5110 13.9480 121° Southeast 529 609 37,000  Level FlightAware ADS-B
Mon 07:46:07 AM 40.4550 14.0700 121° Southeast 527 606 37,000  Level FlightAware ADS-B
Mon 07:46:33 AM 40.4240 14.1390 121° Southeast 527 606 37,000  Level FlightAware ADS-B
Mon 07:47:11 AM 40.3750 14.2450 121° Southeast 525 604 37,000  Level FlightAware ADS-B
Mon 07:47:53 AM 40.3230 14.3590 121° Southeast 523 602 37,000  Level FlightAware ADS-B
Mon 07:48:31 AM 40.2760 14.4620 121° Southeast 521 600 37,000  Level FlightAware ADS-B
Mon 07:49:15 AM 40.2200 14.5810 122° Southeast 514 592 37,000  Level FlightAware ADS-B
Mon 07:49:59 AM 40.1670 14.6960 121° Southeast 511 588 37,000  Level FlightAware ADS-B
Mon 07:50:41 AM 40.1150 14.8070 121° Southeast 509 586 37,000  Level FlightAware ADS-B
Mon 07:51:17 AM 40.0710 14.9010 121° Southeast 509 586 37,000  Level FlightAware ADS-B
Mon 07:52:06 AM 40.0140 15.0230 121° Southeast 509 586 37,000  Level FlightAware ADS-B
Mon 07:52:46 AM 39.9610 15.1350 122° Southeast 508 585 37,000  Level FlightAware ADS-B
Mon 07:53:28 AM 39.9100 15.2430 122° Southeast 505 581 37,000  Level FlightAware ADS-B
Mon 07:54:10 AM 39.8580 15.3510 122° Southeast 502 578 37,000  Level FlightAware ADS-B
Mon 07:54:52 AM 39.8060 15.4610 122° Southeast 501 577 37,000  Level FlightAware ADS-B
Mon 07:55:32 AM 39.7640 15.5670 117° Southeast 506 582 37,000  Level FlightAware ADS-B
Mon 07:56:18 AM 39.7210 15.6950 114° Southeast 506 582 37,000  Level FlightAware ADS-B
Mon 07:56:58 AM 39.6840 15.8040 114° Southeast 506 582 37,000  Level FlightAware ADS-B
Mon 07:57:40 AM 39.6440 15.9230 114° Southeast 506 582 37,000  Level FlightAware ADS-B
Mon 07:58:24 AM 39.6020 16.0470 114° Southeast 510 587 37,000  Level FlightAware ADS-B
Mon 07:59:04 AM 39.5640 16.1590 114° Southeast 510 587 37,000  Level FlightAware ADS-B
Mon 07:59:48 AM 39.5210 16.2810 115° Southeast 508 585 37,000  Level FlightAware ADS-B
Mon 08:00:28 AM 39.4830 16.3920 114° Southeast 509 586 37,000  Level FlightAware ADS-B
Mon 08:01:12 AM 39.4400 16.5150 114° Southeast 512 589 37,000  Level FlightAware ADS-B
Mon 08:01:54 AM 39.4000 16.6300 114° Southeast 512 589 37,000  Level FlightAware ADS-B
Mon 08:02:32 AM 39.3630 16.7350 114° Southeast 506 582 37,000  Level FlightAware ADS-B
Mon 08:03:16 AM 39.3200 16.8580 114° Southeast 506 582 37,000  Level FlightAware ADS-B
Mon 08:03:58 AM 39.2790 16.9750 114° Southeast 511 588 37,000  Level FlightAware ADS-B
Mon 08:04:42 AM 39.2370 17.0940 114° Southeast 513 590 37,000  Level FlightAware ADS-B
Mon 08:05:35 AM 39.1990 17.2010 115° Southeast 516 594 37,000  Level FlightAware ADS-B
Mon 08:06:15 AM 39.1570 17.3180 115° Southeast 518 596 37,000  Level FlightAware ADS-B
Mon 08:06:56 AM 39.1150 17.4340 115° Southeast 519 597 37,000  Level FlightAware ADS-B
Mon 08:07:36 AM 39.0740 17.5500 114° Southeast 520 598 37,000  Level FlightAware ADS-B
Mon 08:08:24 AM 39.0280 17.6770 115° Southeast 520 598 37,000  Level FlightAware ADS-B
Mon 08:09:04 AM 38.9880 17.7880 115° Southeast 521 600 37,000  Level FlightAware ADS-B
Mon 08:10:00 AM 38.9270 17.9550 115° Southeast 518 596 37,000  Level FlightAware ADS-B
Mon 08:10:38 AM 38.8930 18.0480 115° Southeast 517 595 37,000  Level FlightAware ADS-B
Mon 08:11:31 AM 38.8240 18.2350 115° Southeast 512 589 37,000  Level FlightAware ADS-B
Mon 08:12:31 AM 38.7750 18.3690 115° Southeast 514 592 37,000  Level FlightAware ADS-B
Mon 08:13:11 AM 38.7350 18.4760 116° Southeast 515 593 37,000  Level FlightAware ADS-B
Mon 08:13:52 AM 38.6930 18.5900 115° Southeast 515 593 37,000  Level FlightAware ADS-B
Mon 08:14:32 AM 38.6530 18.7060 114° Southeast 515 593 37,000  Level FlightAware ADS-B
Mon 08:15:13 AM 38.6190 18.8130 112° Southeast 515 593 37,000  Level FlightAware ADS-B
Mon 08:16:01 AM 38.5770 18.9570 110° East 522 601 37,000  Level FlightAware ADS-B
Mon 08:16:40 AM 38.5330 19.1080 110° East 519 597 37,000  Level FlightAware ADS-B
Mon 08:17:26 AM 38.4940 19.2390 111° Southeast 520 598 37,000  Level FlightAware ADS-B
Mon 08:18:06 AM 38.4590 19.3530 111° Southeast 521 600 37,000  Level FlightAware ADS-B
Mon 08:18:46 AM 38.4240 19.4690 111° Southeast 522 601 37,000  Level FlightAware ADS-B
Mon 08:19:31 AM 38.3840 19.5980 112° Southeast 522 601 37,000  Level FlightAware ADS-B
Mon 08:20:15 AM 38.3450 19.7270 111° Southeast 522 601 37,000  Level FlightAware ADS-B
Mon 08:20:56 AM 38.3100 19.8430 111° Southeast 522 601 37,000  Level FlightAware ADS-B
Mon 08:21:35 AM 38.2740 19.9580 112° Southeast 522 601 37,000  Level FlightAware ADS-B
Mon 08:22:16 AM 38.2390 20.0740 111° Southeast 525 604 37,000  Level FlightAware ADS-B
Mon 08:23:01 AM 38.1990 20.2020 112° Southeast 526 605 37,000  Level FlightAware ADS-B
Mon 08:23:41 AM 38.1630 20.3200 111° Southeast 526 605 37,000  Level FlightAware ADS-B
Mon 08:24:26 AM 38.1230 20.4470 112° Southeast 527 606 37,000  Level FlightAware ADS-B
Mon 08:25:05 AM 38.0870 20.5610 112° Southeast 529 609 37,000  Level FlightAware ADS-B
Mon 08:25:51 AM 38.0480 20.6850 112° Southeast 532 612 37,000  Level FlightAware ADS-B
Mon 08:26:31 AM 38.0090 20.8080 112° Southeast 531 611 37,000  Level FlightAware ADS-B
Mon 08:27:16 AM 37.9670 20.9410 112° Southeast 533 613 37,000  Level FlightAware ADS-B
Mon 08:27:41 AM 37.9440 21.0120 112° Southeast 534 615 37,000  Level FlightAware ADS-B
Mon 08:28:26 AM 37.9020 21.1440 112° Southeast 536 617 37,000  Level FlightAware ADS-B
Mon 08:29:06 AM 37.8650 21.2570 112° Southeast 536 617 37,000  Level FlightAware ADS-B
Mon 08:29:53 AM 37.8300 21.3730 111° Southeast 536 617 37,000  Level FlightAware ADS-B
Mon 08:30:29 AM 37.8030 21.4620 111° Southeast 536 617 37,000  Level FlightAware ADS-B
Mon 08:31:06 AM 37.7750 21.5540 111° Southeast 536 617 37,000  Level FlightAware ADS-B
Mon 08:31:54 AM 37.7390 21.6740 111° Southeast 536 617 37,000  Level FlightAware ADS-B
Mon 08:32:40 AM 37.7040 21.7880 111° Southeast 536 617 37,000  Level FlightAware ADS-B
Mon 08:33:18 AM 37.6750 21.8830 111° Southeast 536 617 37,000  Level FlightAware ADS-B
Mon 08:33:57 AM 37.5860 22.1070 117° Southeast 535 616 37,000  Level FlightAware ADS-B
Mon 08:34:36 AM 37.5560 22.2030 111° Southeast 535 616 37,000  Level FlightAware ADS-B
Mon 08:35:26 AM 37.5010 22.3630 113° Southeast 37,000  Level FlightAware ADS-B
Mon 08:36:06 AM 37.4640 22.4710 113° Southeast 533 613 37,000  Level FlightAware ADS-B
Mon 08:37:04 AM 37.4060 22.6420 113° Southeast 531 611 37,000  Level FlightAware ADS-B
Mon 08:37:46 AM 37.3650 22.7630 113° Southeast 532 612 37,000  Level FlightAware ADS-B
Mon 08:38:36 AM 37.3190 22.8960 113° Southeast 532 612 37,000  Level FlightAware ADS-B
Mon 08:39:20 AM 37.2730 23.0290 113° Southeast 531 611 37,000  Level FlightAware ADS-B
Mon 08:40:06 AM 37.2290 23.1590 113° Southeast 531 611 37,000  Level FlightAware ADS-B
Mon 08:40:48 AM 37.1880 23.2790 113° Southeast 532 612 37,000  Level FlightAware ADS-B
Mon 08:41:31 AM 37.1470 23.3980 113° Southeast 532 612 37,000  Level FlightAware ADS-B
Mon 08:42:11 AM 37.1070 23.5130 114° Southeast 531 611 37,000  Level FlightAware ADS-B
Mon 08:42:51 AM 37.0680 23.6250 114° Southeast 531 611 37,000  Level FlightAware ADS-B
Mon 08:43:35 AM 37.0240 23.7510 114° Southeast 530 610 37,000  Level FlightAware ADS-B
Mon 08:44:15 AM 36.9850 23.8630 114° Southeast 530 610 37,000  Level FlightAware ADS-B
Mon 08:45:02 AM 36.9410 23.9850 114° Southeast 530 610 37,000  Level FlightAware ADS-B
Mon 08:45:42 AM 36.8990 24.1030 114° Southeast 530 610 37,000  Level FlightAware ADS-B
Mon 08:46:21 AM 36.8590 24.2160 114° Southeast 530 610 37,000  Level FlightAware ADS-B
Mon 08:47:05 AM 36.8150 24.3390 114° Southeast 530 610 37,000  Level FlightAware ADS-B
Mon 08:47:45 AM 36.7760 24.4490 114° Southeast 528 608 37,000  Level FlightAware ADS-B
Mon 08:48:31 AM 36.7290 24.5780 114° Southeast 528 608 37,000  Level FlightAware ADS-B
Mon 08:49:12 AM 36.6890 24.6900 114° Southeast 527 606 37,000  Level FlightAware ADS-B
Mon 08:49:47 AM 36.6530 24.7880 115° Southeast 527 606 37,000  Level FlightAware ADS-B
Mon 08:50:15 AM 36.6250 24.8640 115° Southeast 527 606 37,000  Level FlightAware ADS-B
Mon 08:51:23 AM 36.5560 25.0510 115° Southeast 525 604 37,000  Level FlightAware ADS-B
Mon 08:52:20 AM 36.4990 25.2070 114° Southeast 524 603 37,000  Level FlightAware ADS-B
Mon 08:53:01 AM 36.4570 25.3200 115° Southeast 524 603 37,000  Level FlightAware ADS-B
Mon 08:53:47 AM 36.4090 25.4470 115° Southeast 526 605 37,000  Level FlightAware ADS-B
Mon 08:54:23 AM 36.3730 25.5450 114° Southeast 527 606 37,000  Level FlightAware ADS-B
Mon 08:55:23 AM 36.3120 25.7090 115° Southeast 525 604 37,000  Level FlightAware ADS-B
Mon 08:56:29 AM 36.2440 25.8900 115° Southeast 525 604 37,000  Level FlightAware ADS-B
Mon 08:57:05 AM 36.2070 25.9880 115° Southeast 525 604 37,000  Level FlightAware ADS-B
Mon 08:58:06 AM 36.1450 26.1530 115° Southeast 525 604 37,000  Level FlightAware ADS-B
Mon 08:59:03 AM 36.0850 26.3090 115° Southeast 524 603 37,000  Level FlightAware ADS-B
Mon 08:59:59 AM 36.0270 26.4610 115° Southeast 524 603 37,000  Level FlightAware ADS-B
Mon 09:00:39 AM 35.9860 26.5680 115° Southeast 525 604 37,000  Level FlightAware ADS-B
Mon 09:01:37 AM 35.9260 26.7250 115° Southeast 526 605 37,000  Level FlightAware ADS-B
Mon 09:02:35 AM 35.8670 26.8780 115° Southeast 526 605 37,000  Level FlightAware ADS-B
Mon 09:03:11 AM 35.8270 26.9800 116° Southeast 526 605 37,000  Level FlightAware ADS-B
Mon 09:03:50 AM 35.7870 27.0830 116° Southeast 526 605 37,000  Level FlightAware ADS-B
Mon 09:04:35 AM 35.7390 27.2060 116° Southeast 527 606 37,000  Level FlightAware ADS-B
Mon 09:05:11 AM 35.7000 27.3050 116° Southeast 526 605 37,000  Level FlightAware ADS-B
Mon 09:06:06 AM 35.6550 27.4230 115° Southeast 527 606 37,000  Level FlightAware ADS-B
Mon 09:06:47 AM 35.6190 27.5170 115° Southeast 527 606 37,000  Level FlightAware ADS-B
Mon 09:07:44 AM 35.5690 27.6490 115° Southeast 527 606 37,000  Level FlightAware ADS-B
Mon 09:08:23 AM 35.5350 27.7390 115° Southeast 527 606 37,000  Level FlightAware ADS-B
Mon 09:08:46 AM 35.5150 27.7920 115° Southeast 527 606 37,000  Level FlightAware ADS-B
Mon 09:09:34 AM 35.4210 28.0110 118° Southeast 526 605 37,000  Level FlightAware ADS-B
Mon 09:10:12 AM 35.3790 28.1140 117° Southeast 525 604 37,000  Level FlightAware ADS-B
Mon 09:11:00 AM 35.3280 28.2400 116° Southeast 524 603 37,000  Level FlightAware ADS-B
Mon 09:11:42 AM 35.2830 28.3540 116° Southeast 524 603 37,000  Level FlightAware ADS-B
Mon 09:12:24 AM 35.2380 28.4650 116° Southeast 524 603 37,000  Level FlightAware ADS-B
Mon 09:13:04 AM 35.1950 28.5700 117° Southeast 524 603 37,000  Level FlightAware ADS-B
Mon 09:13:48 AM 35.1480 28.6840 117° Southeast 523 602 37,000  Level FlightAware ADS-B
Mon 09:14:40 AM 35.0990 28.8060 116° Southeast 520 598 37,000  Level FlightAware ADS-B
Mon 09:15:24 AM 35.0420 28.9410 117° Southeast 523 602 37,000  Level FlightAware ADS-B
Mon 09:16:04 AM 34.9990 29.0460 117° Southeast 522 601 37,000  Level FlightAware ADS-B
Mon 09:16:50 AM 34.9500 29.1660 116° Southeast 523 602 37,000  Level FlightAware ADS-B
Mon 09:17:46 AM 34.8880 29.3140 117° Southeast 520 598 37,000  Level FlightAware ADS-B
Mon 09:18:21 AM 34.8520 29.4000 117° Southeast 521 600 37,000  Level FlightAware ADS-B
Mon 09:19:06 AM 34.8000 29.5260 117° Southeast 521 600 37,000  Level FlightAware ADS-B
Mon 09:19:47 AM 34.7570 29.6290 117° Southeast 521 600 37,000  Level FlightAware ADS-B
Mon 09:20:32 AM 34.7070 29.7480 117° Southeast 520 598 37,000  Level FlightAware ADS-B
Mon 09:21:08 AM 34.6670 29.8420 117° Southeast 524 603 37,000  Level FlightAware ADS-B
Mon 09:21:58 AM 34.6120 29.9730 117° Southeast 523 602 37,000  Level FlightAware ADS-B
Mon 09:22:23 AM 34.5830 30.0400 118° Southeast 520 598 37,000  Level FlightAware ADS-B
Mon 09:23:04 AM 34.5390 30.1320 120° Southeast 522 601 37,000  Level FlightAware ADS-B
Mon 09:23:49 AM 34.4800 30.2570 120° Southeast 522 601 37,000  Level FlightAware ADS-B
Mon 09:24:29 AM 34.4310 30.3590 120° Southeast 521 600 37,000  Level FlightAware ADS-B
Mon 09:25:09 AM 34.3820 30.4620 120° Southeast 521 600 37,000  Level FlightAware ADS-B
Mon 09:25:55 AM 34.3260 30.5780 120° Southeast 520 598 37,000  Level FlightAware ADS-B
Mon 09:26:36 AM 34.2790 30.6770 120° Southeast 520 598 37,000 -688 Level FlightAware ADS-B
Mon 09:27:31 AM 34.2100 30.8190 120° Southeast 519 597 35,900 -1,250 Descending FlightAware ADS-B
Mon 09:28:12 AM 34.1620 30.9190 120° Southeast 519 597 35,000 -628 Descending FlightAware ADS-B
Mon 09:28:57 AM 34.1090 31.0290 120° Southeast 517 595 35,000 -71 Level FlightAware ADS-B
Mon 09:29:37 AM 34.0590 31.1310 121° Southeast 517 595 34,900 -847 Descending FlightAware ADS-B
Mon 09:30:22 AM 34.0050 31.2420 120° Southeast 517 595 33,800 -1,341 Descending FlightAware ADS-B
Mon 09:31:02 AM 33.9550 31.3440 121° Southeast 521 600 33,000 -600 Descending FlightAware ADS-B
Mon 09:31:42 AM 33.9070 31.4420 121° Southeast 520 598 33,000  Level FlightAware ADS-B
Mon 09:32:24 AM 33.8550 31.5480 121° Southeast 520 598 33,000  Level FlightAware ADS-B
Mon 09:33:09 AM 33.7980 31.6620 121° Southeast 522 601 33,000  Level FlightAware ADS-B
Mon 09:33:49 AM 33.7490 31.7620 120° Southeast 523 602 33,000  Level FlightAware ADS-B
Mon 09:34:34 AM 33.6920 31.8770 121° Southeast 523 602 33,000  Level FlightAware ADS-B
Mon 09:35:14 AM 33.6440 31.9730 121° Southeast 523 602 33,000  Level FlightAware ADS-B
Mon 09:35:55 AM 33.5920 32.0770 121° Southeast 522 601 33,000  Level FlightAware ADS-B
Mon 09:36:34 AM 33.5420 32.1780 121° Southeast 526 605 33,000  Level FlightAware ADS-B
Mon 09:37:19 AM 33.4850 32.2890 122° Southeast 525 604 33,000  Level FlightAware ADS-B
Mon 09:38:02 AM 33.4310 32.3970 121° Southeast 525 604 33,000 -143 Level FlightAware ADS-B
Mon 09:38:43 AM 33.3810 32.4950 121° Southeast 511 588 32,800 -494 Descending FlightAware ADS-B
Mon 09:39:27 AM 33.3260 32.6040 121° Southeast 497 572 32,300 -776 Descending FlightAware ADS-B
Mon 09:40:08 AM 33.2800 32.6930 122° Southeast 481 554 31,700 -977 Descending FlightAware ADS-B
Mon 09:40:53 AM 33.2240 32.8030 121° Southeast 475 547 30,900 -1,071 Descending FlightAware ADS-B
Mon 09:41:32 AM 33.1800 32.8880 122° Southeast 470 541 30,200 -1,122 Descending FlightAware ADS-B
Mon 09:42:56 AM 33.0850 33.0740 121° Southeast 459 528 28,600 -1,143 Descending FlightAware ADS-B
Mon 09:43:38 AM 33.0380 33.1640 122° Southeast 455 524 27,800 -1,116 Descending FlightAware ADS-B
Mon 09:44:22 AM 32.9900 33.2580 121° Southeast 451 519 27,000 -1,098 Descending FlightAware ADS-B
Mon 09:45:00 AM 32.9490 33.3350 122° Southeast 447 514 26,300 -1,071 Descending FlightAware ADS-B
Mon 09:45:46 AM 32.9000 33.4310 121° Southeast 436 502 25,500 -1,674 Descending FlightAware ADS-B
Mon 09:46:26 AM 32.8570 33.5130 122° Southeast 428 493 23,900 -2,308 Descending FlightAware ADS-B
Mon 09:47:04 AM 32.8170 33.5890 122° Southeast 422 486 22,500 -2,214 Descending FlightAware ADS-B
Mon 09:47:50 AM 32.7700 33.6800 122° Southeast 414 476 20,800 -2,225 Descending FlightAware ADS-B
Mon 09:48:33 AM 32.7260 33.7620 123° Southeast 405 466 19,200 -2,175 Descending FlightAware ADS-B
Mon 09:49:10 AM 32.6910 33.8300 121° Southeast 399 459 17,900 -2,093 Descending FlightAware ADS-B
Mon 09:49:59 AM 32.6430 33.9210 122° Southeast 391 450 16,200 -2,093 Descending FlightAware ADS-B
Mon 09:50:36 AM 32.6090 33.9860 122° Southeast 386 444 14,900 -2,096 Descending FlightAware ADS-B
Mon 09:51:22 AM 32.5640 34.0700 122° Southeast 380 437 13,300 -2,000 Descending FlightAware ADS-B
Mon 09:52:45 AM 32.4830 34.2040 126° Southeast 365 420 10,600 -1,313 Descending FlightAware ADS-B
Mon 09:53:30 AM 32.4340 34.2610 136° Southeast 365 420 10,500 -74 Descending FlightAware ADS-B
Mon 09:54:06 AM 32.3980 34.3040 135° Southeast 365 420 10,500 -1,021 Level FlightAware ADS-B
Mon 09:54:34 AM 32.3680 34.3380 136° Southeast 9,500 -1,655 Descending FlightAware ADS-B
Mon 09:55:04 AM 32.3410 34.3700 135° Southeast 289 333 8,900 -1,222 Descending FlightAware ADS-B
Mon 09:55:28 AM 32.3170 34.3980 135° Southeast 286 329 8,400 -907 Descending FlightAware ADS-B
Mon 09:56:30 AM 32.2630 34.4610 135° Southeast 283 326 7,600 -1,116 Descending FlightAware ADS-B
Mon 09:57:37 AM 32.2150 34.5490 123° Southeast 275 316 6,000 -1,367 Descending FlightAware ADS-B
Mon 09:57:49 AM 32.2030 34.5710 123° Southeast 270 311 5,800 -1,043 Descending FlightAware ADS-B
Mon 09:58:23 AM 32.1830 34.6110 121° Southeast 263 303 5,200 -724 Descending FlightAware ADS-B
Mon 09:58:47 AM 32.1670 34.6420 121° Southeast 275 316 5,100 -125 Descending FlightAware ADS-B
Mon 09:59:11 AM 32.1510 34.6730 121° Southeast 276 318 5,100  Level FlightAware ADS-B
Mon 09:59:29 AM 32.1400 34.6930 123° Southeast 276 318 5,100 122 Level FlightAware ADS-B
Mon 10:00:00 AM 32.1180 34.7320 124° Southeast 277 319 5,200 109 Climbing FlightAware ADS-B
Mon 10:00:24 AM 32.0990 34.7660 123° Southeast 276 318 5,200 -207 Level FlightAware ADS-B
Mon 10:00:58 AM 32.0740 34.7980 133° Southeast 249 287 5,000 -414 Descending FlightAware ADS-B
Mon 10:01:22 AM 32.0520 34.8230 136° Southeast 244 281 4,800 -353 Descending FlightAware ADS-B
Mon 10:01:49 AM 32.0350 34.8410 138° Southeast 240 276 4,700 -1,053 Descending FlightAware ADS-B
Mon 10:02:19 AM 32.0080 34.8720 136° Southeast 242 278 3,800 -1,800 Descending FlightAware ADS-B
Mon 10:02:29 AM 32.0020 34.8850 119° Southeast 243 280 3,500 -1,500 Descending FlightAware ADS-B
Mon 10:02:59 AM 32.0050 34.9240 85° East 221 254 2,800 -1,400 Descending FlightAware ADS-B
Mon 10:05:00 AM 32.0095 34.8769 125° Southeast  Level Estimated
Mon 10:06:00 AM 32.0095 34.8769 125° Southeast  Level Estimated

Login

Don't have an account? Register now (free) for customized features, flight alerts, and more!